createdAt,value
2023-02-18T00:00:13.459Z,48.10
2023-02-18T00:02:58.753Z,47.97
2023-02-18T00:05:43.998Z,48.03
2023-02-18T00:08:29.569Z,47.79
2023-02-18T00:11:15.970Z,48.02
2023-02-18T00:14:03.022Z,47.98
2023-02-18T00:16:48.727Z,47.92
2023-02-18T00:19:33.997Z,48.03
2023-02-18T00:22:19.356Z,48.06
2023-02-18T00:25:04.760Z,48.01
2023-02-18T00:27:49.988Z,48.12
2023-02-18T00:30:35.360Z,47.92
2023-02-18T00:33:21.164Z,47.90
2023-02-18T00:36:10.566Z,47.92
2023-02-18T00:38:59.352Z,48.12
2023-02-18T00:41:44.851Z,48.06
2023-02-18T00:44:30.343Z,47.93
2023-02-18T00:47:16.156Z,48.10
2023-02-18T00:50:02.492Z,48.17
2023-02-18T00:52:48.092Z,48.07
2023-02-18T00:55:40.437Z,48.16
2023-02-18T00:58:26.369Z,48.21
2023-02-18T01:01:12.301Z,48.06
2023-02-18T01:03:59.404Z,47.92
2023-02-18T01:06:44.807Z,47.94
2023-02-18T01:09:30.038Z,47.86
2023-02-18T01:12:16.081Z,48.02
2023-02-18T01:15:01.475Z,48.03
2023-02-18T01:17:46.664Z,48.12
2023-02-18T01:20:31.790Z,48.05
2023-02-18T01:23:17.638Z,48.04
2023-02-18T01:26:03.171Z,48.03
2023-02-18T01:28:51.415Z,48.06
2023-02-18T01:31:36.653Z,48.02
2023-02-18T01:34:21.841Z,48.22
2023-02-18T01:37:09.053Z,48.08
2023-02-18T01:39:54.406Z,48.14
2023-02-18T01:42:40.195Z,48.14
2023-02-18T01:45:42.721Z,48.08
2023-02-18T01:48:39.674Z,48.11
2023-02-18T01:51:30.200Z,48.20
2023-02-18T01:54:29.102Z,48.37
2023-02-18T01:57:18.438Z,48.26
2023-02-18T02:00:22.003Z,48.17
2023-02-18T02:03:07.276Z,48.20
2023-02-18T02:05:52.517Z,48.38
2023-02-18T02:08:37.965Z,48.27
2023-02-18T02:12:01.000Z,48.19
2023-02-18T02:14:46.533Z,48.56
2023-02-18T02:17:45.998Z,48.24
2023-02-18T02:20:50.123Z,48.06
2023-02-18T02:24:02.441Z,48.24
2023-02-18T02:26:54.526Z,48.09
2023-02-18T02:29:48.927Z,48.10
2023-02-18T02:33:13.999Z,48.06
2023-02-18T02:36:08.975Z,48.09
2023-02-18T02:39:02.185Z,48.09
2023-02-18T02:42:32.595Z,48.23
2023-02-18T02:45:47.303Z,48.23
2023-02-18T02:48:47.281Z,48.49
2023-02-18T02:51:48.049Z,48.34
2023-02-18T02:54:34.011Z,48.17
2023-02-18T02:57:19.231Z,48.34
2023-02-18T03:00:32.427Z,48.47
2023-02-18T03:03:43.417Z,48.42
2023-02-18T03:07:08.822Z,48.44
2023-02-18T03:10:15.569Z,48.49
2023-02-18T03:13:18.869Z,48.43
2023-02-18T03:16:28.801Z,48.43
2023-02-18T03:19:22.813Z,48.36
2023-02-18T03:22:32.979Z,48.36
2023-02-18T03:25:21.740Z,48.52
2023-02-18T03:28:12.339Z,48.38
2023-02-18T03:31:07.335Z,48.34
2023-02-18T03:33:59.050Z,48.28
2023-02-18T03:36:45.590Z,48.51
2023-02-18T03:39:35.723Z,48.32
2023-02-18T03:42:29.842Z,48.21
2023-02-18T03:45:15.339Z,48.58
2023-02-18T03:48:00.806Z,48.33
2023-02-18T03:50:45.959Z,48.03
2023-02-18T03:53:31.319Z,48.47
2023-02-18T03:56:17.307Z,48.41
2023-02-18T03:59:03.583Z,48.44
2023-02-18T04:01:49.264Z,48.36
2023-02-18T04:04:34.513Z,48.38
2023-02-18T04:07:19.870Z,48.35
2023-02-18T04:10:06.741Z,48.45
2023-02-18T04:12:52.181Z,48.46
2023-02-18T04:15:37.562Z,48.44
2023-02-18T04:18:23.199Z,48.39
2023-02-18T04:21:08.807Z,48.32
2023-02-18T04:23:54.066Z,48.28
2023-02-18T04:26:39.214Z,48.58
2023-02-18T04:29:25.171Z,48.28
2023-02-18T04:32:10.390Z,48.27
2023-02-18T04:34:55.649Z,48.41
2023-02-18T04:37:40.907Z,48.26
2023-02-18T04:40:29.794Z,48.39
2023-02-18T04:43:15.394Z,48.25
2023-02-18T04:46:00.783Z,48.29
2023-02-18T04:48:46.219Z,48.25
2023-02-18T04:51:31.752Z,48.33
2023-02-18T04:54:17.327Z,48.46
2023-02-18T04:57:02.859Z,48.49
2023-02-18T04:59:48.038Z,48.55
2023-02-18T05:02:33.675Z,48.45
2023-02-18T05:05:19.401Z,48.47
2023-02-18T05:08:04.783Z,48.76
2023-02-18T05:10:50.432Z,48.78
2023-02-18T05:13:36.197Z,48.53
2023-02-18T05:16:21.636Z,48.25
2023-02-18T05:19:06.990Z,48.25
2023-02-18T05:21:52.312Z,48.21
2023-02-18T05:24:37.797Z,48.10
2023-02-18T05:27:23.179Z,48.03
2023-02-18T05:30:09.176Z,47.88
2023-02-18T05:32:54.963Z,47.97
2023-02-18T05:35:40.458Z,47.87
2023-02-18T05:38:26.191Z,47.83
2023-02-18T05:41:12.363Z,48.00
2023-02-18T05:44:16.016Z,47.81
2023-02-18T05:47:05.276Z,47.61
2023-02-18T05:49:52.151Z,47.77
2023-02-18T05:52:37.279Z,48.44
2023-02-18T05:55:24.407Z,48.57
2023-02-18T05:58:10.149Z,48.96
2023-02-18T06:00:55.550Z,48.97
2023-02-18T06:03:41.052Z,49.08
2023-02-18T06:06:26.589Z,49.18
2023-02-18T06:09:12.167Z,48.96
2023-02-18T06:11:57.933Z,48.89
2023-02-18T06:14:43.637Z,49.08
2023-02-18T06:44:33.002Z,47.99
2023-02-18T06:47:18.221Z,48.23
2023-02-18T06:50:04.130Z,48.24
2023-02-18T06:52:49.365Z,49.43
2023-02-18T06:55:34.682Z,49.65
2023-02-18T07:06:26.992Z,49.28
2023-02-18T07:09:12.225Z,49.11
2023-02-18T07:11:57.475Z,50.03
2023-02-18T07:14:42.870Z,49.75
2023-02-18T07:17:28.266Z,49.91
2023-02-18T07:20:13.670Z,49.75
2023-02-18T07:22:59.122Z,49.49
2023-02-18T07:25:44.416Z,49.41
2023-02-18T07:28:29.782Z,49.38
2023-02-18T07:31:15.198Z,49.05
2023-02-18T07:34:00.780Z,48.83
2023-02-18T07:36:46.375Z,48.95
2023-02-18T07:39:31.600Z,49.36
2023-02-18T07:42:16.646Z,48.83
2023-02-18T07:45:03.732Z,48.87
2023-02-18T07:47:49.472Z,48.65
2023-02-18T07:50:38.240Z,48.71
2023-02-18T07:53:23.715Z,48.83
2023-02-18T07:56:09.279Z,48.67
2023-02-18T07:58:55.176Z,48.59
2023-02-18T08:01:42.564Z,48.10
2023-02-18T08:04:29.332Z,48.29
2023-02-18T08:07:16.669Z,48.60
2023-02-18T08:10:02.231Z,48.90
2023-02-18T08:12:51.938Z,49.11
2023-02-18T08:15:39.779Z,49.30
2023-02-18T08:18:26.696Z,49.55
2023-02-18T08:21:14.033Z,49.89
2023-02-18T08:24:00.187Z,50.12
2023-02-18T08:26:59.358Z,50.28
2023-02-18T08:30:04.493Z,50.16
2023-02-18T08:32:52.907Z,48.47
2023-02-18T08:35:38.589Z,49.10
2023-02-18T08:38:24.997Z,49.25
2023-02-18T08:41:11.097Z,48.98
2023-02-18T08:43:56.519Z,48.94
2023-02-18T08:46:42.271Z,48.74
2023-02-18T08:49:27.364Z,49.12
2023-02-18T08:52:13.140Z,48.73
2023-02-18T08:54:58.412Z,48.40
2023-02-18T08:57:43.642Z,48.06
2023-02-18T09:00:29.024Z,47.97
2023-02-18T09:03:15.259Z,47.78
2023-02-18T09:06:01.496Z,47.42
2023-02-18T09:08:46.789Z,47.59
2023-02-18T09:11:32.714Z,47.63
2023-02-18T09:14:18.193Z,47.83
2023-02-18T09:17:03.363Z,47.92
2023-02-18T09:19:49.061Z,47.77
2023-02-18T09:22:34.565Z,48.08
2023-02-18T09:25:20.146Z,48.55
2023-02-18T09:28:06.192Z,48.85
2023-02-18T09:30:52.106Z,48.81
2023-02-18T09:33:45.822Z,49.06
2023-02-18T09:36:32.936Z,49.19
2023-02-18T09:39:18.145Z,49.17
2023-02-18T09:42:12.614Z,48.95
2023-02-18T09:45:02.681Z,49.13
2023-02-18T09:47:49.564Z,48.75
2023-02-18T09:50:35.300Z,48.99
2023-02-18T09:53:23.197Z,48.71
2023-02-18T09:56:12.151Z,48.91
2023-02-18T09:58:59.686Z,48.55
2023-02-18T10:01:48.838Z,48.27
2023-02-18T10:04:45.894Z,47.87
2023-02-18T10:07:33.751Z,48.48
2023-02-18T10:10:23.210Z,48.65
2023-02-18T10:13:18.172Z,49.19
2023-02-18T10:16:04.789Z,48.87
2023-02-18T10:18:55.442Z,48.92
2023-02-18T10:21:41.543Z,49.03
2023-02-18T10:24:26.860Z,48.93
2023-02-18T10:27:20.856Z,48.81
2023-02-18T10:30:09.404Z,48.31
2023-02-18T10:33:15.806Z,47.96
2023-02-18T10:36:15.258Z,47.70
2023-02-18T10:39:09.764Z,47.52
2023-02-18T10:42:19.229Z,47.37
2023-02-18T10:46:01.963Z,47.22
2023-02-18T10:48:59.580Z,47.24
2023-02-18T10:51:52.637Z,47.32
2023-02-18T10:54:59.463Z,47.35
2023-02-18T10:57:51.632Z,48.10
2023-02-18T11:00:40.317Z,48.19
2023-02-18T11:03:38.301Z,48.15
2023-02-18T11:06:43.195Z,48.09
2023-02-18T11:09:40.911Z,48.26
2023-02-18T11:12:39.468Z,48.23
2023-02-18T11:15:26.724Z,48.36
2023-02-18T11:18:30.342Z,48.42
2023-02-18T11:21:34.465Z,48.55
2023-02-18T11:24:20.610Z,48.48
2023-02-18T11:27:20.676Z,48.63
2023-02-18T11:30:16.065Z,48.64
2023-02-18T11:33:09.084Z,48.81
2023-02-18T11:35:57.052Z,48.72
2023-02-18T11:38:50.254Z,49.10
2023-02-18T11:41:42.883Z,48.84
2023-02-18T11:44:40.321Z,48.90
2023-02-18T11:47:33.436Z,49.02
2023-02-18T11:50:22.610Z,48.88
2023-02-18T11:53:28.958Z,48.93
2023-02-18T11:56:20.276Z,48.97
2023-02-18T11:59:07.184Z,48.96
2023-02-18T12:02:10.916Z,48.99
2023-02-18T12:05:00.041Z,49.00
2023-02-18T12:07:58.396Z,48.80
2023-02-18T12:10:57.046Z,49.07
2023-02-18T12:14:00.514Z,49.09
2023-02-18T12:16:46.543Z,48.99
2023-02-18T12:19:36.352Z,48.94
2023-02-18T12:23:06.311Z,48.93
2023-02-18T12:26:10.085Z,49.01
2023-02-18T12:29:01.843Z,48.75
2023-02-18T12:32:24.783Z,48.89
2023-02-18T12:35:45.264Z,48.78
2023-02-18T12:39:03.859Z,48.89
2023-02-18T12:42:24.578Z,48.88
2023-02-18T12:45:47.494Z,48.82
2023-02-18T12:48:32.991Z,49.19
2023-02-18T12:51:28.249Z,48.82
2023-02-18T12:54:15.238Z,48.77
2023-02-18T12:57:09.143Z,48.83
2023-02-18T13:00:23.392Z,48.81
2023-02-18T13:03:36.559Z,48.73
2023-02-18T13:06:22.958Z,48.70
2023-02-18T13:09:26.700Z,49.43
2023-02-18T13:12:19.740Z,49.85
2023-02-18T13:15:31.280Z,50.02
2023-02-18T13:18:34.507Z,49.67
2023-02-18T13:21:19.815Z,49.43
2023-02-18T13:24:11.170Z,48.96
2023-02-18T13:27:06.361Z,49.24
2023-02-18T13:30:19.399Z,49.50
2023-02-18T13:33:36.321Z,49.63
2023-02-18T13:36:33.866Z,49.64
2023-02-18T13:39:22.846Z,49.18
2023-02-18T13:42:31.526Z,48.87
2023-02-18T13:45:27.472Z,48.70
2023-02-18T13:48:27.307Z,48.15
2023-02-18T13:51:16.376Z,48.34
2023-02-18T13:54:09.838Z,48.18
2023-02-18T13:57:05.270Z,47.74
2023-02-18T14:00:22.202Z,48.03
2023-02-18T14:03:33.694Z,47.90
2023-02-18T14:06:26.038Z,47.85
2023-02-18T14:09:14.837Z,47.88
2023-02-18T14:12:37.576Z,47.88
2023-02-18T14:15:23.157Z,47.84
2023-02-18T14:18:14.969Z,47.84
2023-02-18T14:21:12.789Z,47.99
2023-02-18T14:24:01.720Z,47.95
2023-02-18T14:26:49.591Z,47.95
2023-02-18T14:29:35.197Z,48.11
2023-02-18T14:32:21.618Z,48.10
2023-02-18T14:35:29.313Z,48.20
2023-02-18T14:38:49.834Z,48.17
2023-02-18T14:41:56.621Z,48.32
2023-02-18T14:44:42.496Z,48.39
2023-02-18T14:47:46.623Z,48.55
2023-02-18T14:50:35.385Z,48.48
2023-02-18T14:53:24.538Z,48.60
2023-02-18T14:56:14.221Z,48.92
2023-02-18T14:59:02.834Z,48.71
2023-02-18T15:01:48.435Z,48.91
2023-02-18T15:04:33.985Z,49.00
2023-02-18T15:07:21.423Z,48.98
2023-02-18T15:10:14.055Z,49.60
2023-02-18T15:13:02.287Z,50.25
2023-02-18T15:15:52.268Z,50.29
2023-02-18T15:18:44.679Z,50.76
2023-02-18T15:21:52.124Z,51.21
2023-02-18T15:24:38.550Z,51.46
2023-02-18T15:27:32.868Z,51.79
2023-02-18T15:30:30.927Z,51.75
2023-02-18T15:33:18.134Z,51.79
2023-02-18T15:36:06.814Z,51.77
2023-02-18T15:38:53.223Z,51.75
2023-02-18T15:41:39.638Z,51.87
2023-02-18T15:44:32.551Z,51.75
2023-02-18T15:47:18.927Z,51.85
2023-02-18T15:50:05.338Z,51.72
2023-02-18T15:52:53.864Z,51.80
2023-02-18T15:55:46.069Z,51.44
2023-02-18T15:58:32.888Z,51.24
2023-02-18T16:01:29.983Z,51.44
2023-02-18T16:04:15.926Z,51.23
2023-02-18T16:07:16.398Z,50.79
2023-02-18T16:11:03.054Z,50.55
2023-02-18T16:13:48.780Z,50.37
2023-02-18T16:16:36.864Z,50.36
2023-02-18T16:19:24.962Z,50.10
2023-02-18T16:22:33.617Z,49.96
2023-02-18T16:25:22.185Z,49.52
2023-02-18T16:28:12.345Z,49.50
2023-02-18T16:30:57.919Z,49.20
2023-02-18T16:33:44.079Z,49.13
2023-02-18T16:36:30.023Z,49.12
2023-02-18T16:39:15.240Z,49.10
2023-02-18T16:42:00.956Z,49.46
2023-02-18T16:44:48.102Z,49.22
2023-02-18T16:47:34.641Z,49.49
2023-02-18T16:50:21.673Z,49.04
2023-02-18T16:53:07.036Z,48.13
2023-02-18T16:55:52.364Z,48.20
2023-02-18T16:58:37.651Z,48.25
2023-02-18T17:01:26.826Z,48.26
2023-02-18T17:04:17.378Z,47.71
2023-02-18T17:07:03.735Z,47.87
2023-02-18T17:09:49.465Z,47.86
2023-02-18T17:12:34.678Z,47.89
2023-02-18T17:15:31.011Z,47.97
2023-02-18T17:18:16.788Z,47.95
2023-02-18T17:21:03.306Z,48.01
2023-02-18T17:23:49.417Z,48.09
2023-02-18T17:26:34.827Z,48.16
2023-02-18T17:29:20.323Z,48.26
2023-02-18T17:32:07.714Z,48.28
2023-02-18T17:34:53.366Z,48.10
2023-02-18T17:37:38.662Z,48.35
2023-02-18T17:40:26.526Z,48.34
2023-02-18T17:43:17.002Z,48.50
2023-02-18T17:46:02.285Z,48.49
2023-02-18T17:48:47.668Z,48.37
2023-02-18T17:51:34.958Z,48.54
2023-02-18T17:54:22.811Z,48.63
2023-02-18T17:57:08.396Z,48.55
2023-02-18T17:59:53.856Z,48.63
2023-02-18T18:02:38.953Z,48.58
2023-02-18T18:05:26.688Z,47.85
2023-02-18T18:08:12.530Z,48.63
2023-02-18T18:11:01.589Z,48.63
2023-02-18T18:14:46.901Z,48.79
2023-02-18T18:17:34.116Z,48.72
2023-02-18T18:20:20.558Z,48.85
2023-02-18T18:23:07.429Z,48.75
2023-02-18T18:26:00.028Z,48.91
2023-02-18T18:28:45.756Z,48.67
2023-02-18T18:31:32.359Z,48.87
2023-02-18T18:34:18.013Z,48.83
2023-02-18T18:37:03.478Z,48.83
2023-02-18T18:39:48.826Z,48.83
2023-02-18T18:42:34.126Z,48.94
2023-02-18T18:45:31.492Z,48.92
2023-02-18T18:48:17.995Z,48.99
2023-02-18T18:51:04.012Z,48.91
2023-02-18T18:53:49.410Z,48.78
2023-02-18T18:56:34.860Z,48.88
2023-02-18T18:59:20.116Z,49.06
2023-02-18T19:02:07.058Z,48.84
2023-02-18T19:04:52.722Z,48.89
2023-02-18T19:07:37.895Z,49.26
2023-02-18T19:10:23.408Z,49.01
2023-02-18T19:13:13.425Z,48.90
2023-02-18T19:16:18.079Z,48.96
2023-02-18T19:19:03.397Z,48.92
2023-02-18T19:21:49.001Z,49.11
2023-02-18T19:24:34.597Z,49.03
2023-02-18T19:27:20.263Z,48.84
2023-02-18T19:30:06.869Z,48.81
2023-02-18T19:32:56.147Z,48.98
2023-02-18T19:35:42.825Z,49.03
2023-02-18T19:38:28.144Z,48.85
2023-02-18T19:41:16.844Z,49.06
2023-02-18T19:44:02.093Z,49.10
2023-02-18T19:46:47.711Z,49.02
2023-02-18T19:49:33.449Z,49.06
2023-02-18T19:52:20.840Z,49.03
2023-02-18T19:55:07.883Z,49.11
2023-02-18T19:57:53.290Z,49.11
2023-02-18T20:00:40.539Z,49.19
2023-02-18T20:03:26.191Z,49.38
2023-02-18T20:06:16.952Z,49.02
2023-02-18T20:09:02.632Z,49.05
2023-02-18T20:11:48.475Z,48.91
2023-02-18T20:14:33.973Z,49.02
2023-02-18T20:17:19.783Z,48.90
2023-02-18T20:20:06.595Z,48.80
2023-02-18T20:22:51.781Z,49.11
2023-02-18T20:25:39.199Z,48.98
2023-02-18T20:28:24.517Z,48.94
2023-02-18T20:31:12.743Z,48.84
2023-02-18T20:33:58.493Z,48.85
2023-02-18T20:36:45.545Z,48.75
2023-02-18T20:39:31.035Z,49.00
2023-02-18T20:42:17.144Z,48.97
2023-02-18T20:45:06.105Z,48.89
2023-02-18T20:47:51.854Z,48.85
2023-02-18T20:50:37.046Z,48.89
2023-02-18T20:53:22.492Z,48.87
2023-02-18T20:56:08.430Z,48.70
2023-02-18T20:58:53.784Z,48.87
2023-02-18T21:01:41.104Z,48.88
2023-02-18T21:04:27.584Z,48.81
2023-02-18T21:07:13.020Z,48.85
2023-02-18T21:09:58.213Z,48.79
2023-02-18T21:12:43.721Z,48.61
2023-02-18T21:15:28.798Z,48.67
2023-02-18T21:18:15.044Z,48.74
2023-02-18T21:21:06.366Z,48.72
2023-02-18T21:23:52.439Z,49.03
2023-02-18T21:26:38.722Z,48.74
2023-02-18T21:29:24.922Z,48.70
2023-02-18T21:32:10.349Z,48.70
2023-02-18T21:34:55.753Z,48.80
2023-02-18T21:37:41.085Z,48.63
2023-02-18T21:40:26.596Z,48.75
2023-02-18T21:43:12.667Z,48.67
2023-02-18T21:46:07.136Z,49.72
2023-02-18T21:49:12.411Z,50.13
2023-02-18T21:51:58.051Z,50.55
2023-02-18T21:54:44.858Z,50.65
2023-02-18T21:57:30.383Z,50.56
2023-02-18T22:00:20.964Z,50.71
2023-02-18T22:03:06.400Z,50.61
2023-02-18T22:05:51.884Z,50.53
2023-02-18T22:08:36.961Z,50.35
2023-02-18T22:11:22.129Z,50.45
2023-02-18T22:14:08.572Z,50.49
2023-02-18T22:16:53.885Z,50.45
2023-02-18T22:19:39.737Z,50.37
2023-02-18T22:22:25.274Z,50.18
2023-02-18T22:25:10.518Z,50.05
2023-02-18T22:27:55.864Z,50.03
2023-02-18T22:30:41.146Z,49.93
2023-02-18T22:33:27.353Z,49.88
2023-02-18T22:36:13.509Z,49.69
2023-02-18T22:39:02.902Z,49.81
2023-02-18T22:41:49.132Z,49.74
2023-02-18T22:44:34.503Z,49.65
2023-02-18T22:47:19.693Z,49.45
2023-02-18T22:50:05.280Z,49.36
2023-02-18T22:52:50.828Z,49.46
2023-02-18T22:55:35.949Z,49.29
2023-02-18T22:58:21.152Z,49.51
2023-02-18T23:01:07.115Z,49.18
2023-02-18T23:03:53.537Z,49.11
2023-02-18T23:06:40.654Z,48.61
2023-02-18T23:09:26.464Z,48.55
2023-02-18T23:12:11.995Z,48.65
2023-02-18T23:14:57.328Z,48.19
2023-02-18T23:17:42.746Z,48.20
2023-02-18T23:20:47.647Z,48.18
2023-02-18T23:23:32.852Z,47.94
2023-02-18T23:26:22.741Z,47.95
2023-02-18T23:29:08.593Z,47.89
2023-02-18T23:31:54.206Z,47.86
2023-02-18T23:34:39.583Z,47.89
2023-02-18T23:37:44.782Z,47.92
2023-02-18T23:40:30.561Z,47.87
2023-02-18T23:43:15.900Z,47.88
2023-02-18T23:46:01.161Z,47.83
2023-02-18T23:48:46.384Z,47.85
2023-02-18T23:51:32.123Z,48.07
2023-02-18T23:54:18.302Z,47.88
2023-02-18T23:57:03.846Z,48.28
2023-02-18T23:59:49.172Z,48.26
